Chatham, MA

1:09 PM EDT on July 29, 2016 (GMT -0400)
Chatham | | Change Station

Elev 43 ft 41.69 °N, 69.97 °W | Updated 9 seconds ago

Light Rain
Light Rain Mist
74.5 °F
Feels Like 71 °F
N
0.0
Wind Variable Wind from West
Gusts 0.0 mph

Today
High -- | Low -- °F
--% Chance of Precip.
Yesterday
High -- | Low -- °F
Precip. -- in
Pressure 29.86 in
Visibility 6.0 miles
Clouds Scattered Clouds 200 ft
Mostly Cloudy 6000 ft
Overcast 9000 ft
Heat Index 71 °F
Dew Point 74 °F
Humidity 99%
Rainfall 0.27 in
Snow Depth Not available.
5:31 AM 8:00 PM
Waning Crescent, 20% visible
SPECI KCQX 291701Z AUTO 20004KT 6SM -RA BR SCT002 BKN060 OVC090 22/22 A2986 RMK AO2 P0000 T02170217
Pressure 29.86 in
Visibility 6.0 miles
Clouds Scattered Clouds 200 ft
Mostly Cloudy 6000 ft
Overcast 9000 ft
Heat Index 71 °F
Dew Point 74 °F
Humidity 99%
Rainfall 0.27 in
Snow Depth Not available.
5:31 AM 8:00 PM
Waning Crescent, 20% visible
SPECI KCQX 291701Z AUTO 20004KT 6SM -RA BR SCT002 BKN060 OVC090 22/22 A2986 RMK AO2 P0000 T02170217

10-Day Weather Forecast

Almanac

Astronomy

Jul. 29, 2016 Rise Set
Actual Time
Civil Twilight
Nautical Twilight
Astronomical Twilight
Moon
Length of Visible Light
Length of Day
Tomorrow will be .
, % of the Moon is Illuminated

Today's Extremes

State Highs State Lows

Community

WunderPhotos

Upload Photos

1,928,381 photos uploaded!

WunderBlog® & News

Nearby

Air Quality

  Air Quality AQ Index Pollutant
Not available.

Snow Depth

Station Depth Elevation

Earthquake Activity

City Distance Mag. Time & Date
Minimum magnitude displayed is 2.5.

Coastal Water Temperatures

Place Temperature

Stations

Nearby Weather Stations

Station Location Temp. Windchill Dew Point Humidity Wind Precip. Elev Updated Type
                   

Watches & Warnings

Flood Watch / Flood Statement
Issued: 1:00 PM EDT Jul. 29, 2016 – National Weather Service

... Flash Flood Watch is cancelled...

The Flash Flood Watch for a portion of southeastern Massachusetts
has been cancelled.While rainfall is expected to continue over the
next couple of hours... it will not be heavy enough to produce flash
flooding.